createdAt,value
2022-09-30T00:00:22.876Z,27.98
2022-09-30T00:02:49.773Z,26.15
2022-09-30T00:05:16.935Z,28.30
2022-09-30T00:07:43.789Z,28.02
2022-09-30T00:10:10.877Z,23.95
2022-09-30T00:12:37.994Z,28.40
2022-09-30T00:15:05.031Z,27.40
2022-09-30T00:17:32.017Z,22.90
2022-09-30T00:19:58.862Z,27.63
2022-09-30T00:22:25.689Z,28.63
2022-09-30T00:24:52.616Z,26.90
2022-09-30T00:27:20.101Z,24.77
2022-09-30T00:29:47.133Z,25.83
2022-09-30T00:32:14.026Z,24.52
2022-09-30T00:34:40.928Z,24.33
2022-09-30T00:37:08.902Z,19.80
2022-09-30T00:39:37.643Z,22.40
2022-09-30T00:42:07.091Z,21.80
2022-09-30T00:44:40.202Z,22.30
2022-09-30T00:47:19.210Z,22.23
2022-09-30T00:49:46.135Z,19.60
2022-09-30T00:52:13.133Z,21.02
2022-09-30T00:54:40.012Z,21.90
2022-09-30T00:57:08.199Z,20.58
2022-09-30T00:59:38.349Z,22.52
2022-09-30T01:02:06.158Z,19.90
2022-09-30T01:04:35.152Z,21.17
2022-09-30T01:07:03.178Z,20.38
2022-09-30T01:09:32.134Z,18.85
2022-09-30T01:11:59.067Z,18.42
2022-09-30T01:14:26.817Z,16.92
2022-09-30T01:16:57.119Z,17.40
2022-09-30T01:19:27.474Z,20.17
2022-09-30T01:22:07.933Z,22.33
2022-09-30T01:24:39.969Z,21.75
2022-09-30T01:27:15.967Z,23.67
2022-09-30T01:29:58.908Z,24.35
2022-09-30T01:32:37.039Z,19.58
2022-09-30T01:35:09.804Z,20.88
2022-09-30T01:37:45.486Z,25.25
2022-09-30T01:40:28.374Z,27.85
2022-09-30T01:43:07.554Z,21.23
2022-09-30T01:45:38.207Z,28.52
2022-09-30T01:50:31.847Z,27.95
2022-09-30T01:53:07.900Z,23.17
2022-09-30T01:55:53.501Z,24.42
2022-09-30T01:58:39.165Z,40.40
2022-09-30T02:01:08.805Z,24.75
2022-09-30T02:03:40.023Z,27.00
2022-09-30T02:06:08.737Z,23.05
2022-09-30T02:08:35.584Z,19.60
2022-09-30T02:11:08.504Z,23.73
2022-09-30T02:13:44.271Z,22.95
2022-09-30T02:16:51.016Z,25.83
2022-09-30T02:19:20.580Z,26.80
2022-09-30T02:21:56.316Z,22.88
2022-09-30T02:24:25.768Z,25.25
2022-09-30T02:26:55.027Z,24.58
2022-09-30T02:29:25.065Z,26.15
2022-09-30T02:31:54.993Z,23.38
2022-09-30T02:34:21.758Z,21.47
2022-09-30T02:36:53.334Z,22.75
2022-09-30T02:39:22.768Z,22.55
2022-09-30T02:41:53.340Z,24.48
2022-09-30T02:44:20.484Z,24.67
2022-09-30T02:46:53.625Z,21.60
2022-09-30T02:49:28.466Z,24.25
2022-09-30T02:52:04.630Z,23.52
2022-09-30T02:54:35.766Z,21.70
2022-09-30T02:57:16.034Z,31.85
2022-09-30T02:59:42.941Z,27.90
2022-09-30T03:02:09.956Z,22.77
2022-09-30T03:04:37.329Z,21.88
2022-09-30T03:07:04.203Z,23.00
2022-09-30T03:09:31.122Z,21.17
2022-09-30T03:12:08.364Z,25.83
2022-09-30T03:14:45.011Z,20.17
2022-09-30T03:17:21.034Z,23.25
2022-09-30T03:20:10.276Z,24.52
2022-09-30T03:22:52.450Z,23.08
2022-09-30T03:25:22.125Z,27.15
2022-09-30T03:27:59.666Z,24.27
2022-09-30T03:30:27.244Z,23.85
2022-09-30T03:32:56.969Z,27.05
2022-09-30T03:35:32.952Z,22.52
2022-09-30T03:38:06.041Z,22.35
2022-09-30T03:40:51.313Z,22.75
2022-09-30T03:43:26.587Z,21.13
2022-09-30T03:46:22.766Z,23.73
2022-09-30T03:48:51.823Z,27.17
2022-09-30T03:51:18.906Z,22.80
2022-09-30T03:53:46.771Z,23.98
2022-09-30T03:56:13.815Z,21.83
2022-09-30T03:58:42.484Z,22.13
2022-09-30T04:01:12.120Z,23.27
2022-09-30T04:03:39.111Z,24.60
2022-09-30T04:06:08.724Z,30.67
2022-09-30T04:08:36.476Z,24.15
2022-09-30T04:11:04.209Z,23.08
2022-09-30T04:13:31.541Z,25.73
2022-09-30T04:15:58.667Z,23.67
2022-09-30T04:18:25.558Z,27.13
2022-09-30T04:20:52.483Z,22.90
2022-09-30T04:23:19.370Z,27.83
2022-09-30T04:25:52.173Z,23.23
2022-09-30T04:28:19.706Z,27.67
2022-09-30T04:30:46.526Z,25.88
2022-09-30T04:33:13.483Z,23.33
2022-09-30T04:35:40.607Z,23.50
2022-09-30T04:38:07.556Z,22.33
2022-09-30T04:40:38.432Z,24.30
2022-09-30T04:43:06.071Z,21.52
2022-09-30T04:45:32.980Z,22.13
2022-09-30T04:47:59.976Z,22.20
2022-09-30T04:50:27.006Z,28.50
2022-09-30T04:52:56.037Z,20.17
2022-09-30T04:55:23.594Z,21.33
2022-09-30T04:57:50.819Z,22.30
2022-09-30T05:00:17.855Z,26.48
2022-09-30T05:02:45.060Z,27.08
2022-09-30T05:05:11.970Z,23.88
2022-09-30T05:07:38.877Z,22.35
2022-09-30T05:10:06.039Z,22.38
2022-09-30T05:12:32.787Z,22.27
2022-09-30T05:14:59.951Z,22.35
2022-09-30T05:17:29.713Z,26.77
2022-09-30T05:19:56.529Z,18.40
2022-09-30T05:22:24.957Z,18.83
2022-09-30T05:24:52.116Z,19.27
2022-09-30T05:27:22.999Z,19.42
2022-09-30T05:29:50.095Z,22.00
2022-09-30T05:32:17.677Z,20.17
2022-09-30T05:34:44.508Z,20.73
2022-09-30T05:37:11.295Z,20.33
2022-09-30T05:39:38.141Z,18.27
2022-09-30T05:42:04.970Z,19.60
2022-09-30T05:44:31.761Z,20.42
2022-09-30T05:46:59.833Z,19.50
2022-09-30T05:49:26.783Z,19.63
2022-09-30T05:51:53.789Z,19.27
2022-09-30T05:54:20.611Z,22.77
2022-09-30T05:56:47.468Z,20.58
2022-09-30T05:59:14.485Z,26.30
2022-09-30T06:01:41.395Z,20.27
2022-09-30T06:04:08.401Z,21.98
2022-09-30T06:06:35.211Z,24.55
2022-09-30T06:09:02.100Z,20.00
2022-09-30T06:11:29.019Z,23.38
2022-09-30T06:13:57.545Z,22.50
2022-09-30T06:16:24.738Z,19.40
2022-09-30T06:18:51.742Z,22.70
2022-09-30T06:21:19.526Z,22.80
2022-09-30T06:23:46.889Z,18.73
2022-09-30T06:26:14.578Z,14.85
2022-09-30T06:28:41.792Z,17.48
2022-09-30T06:31:08.989Z,18.00
2022-09-30T06:33:35.886Z,21.13
2022-09-30T06:36:04.852Z,20.17
2022-09-30T06:38:32.875Z,22.58
2022-09-30T06:41:02.372Z,23.98
2022-09-30T06:43:29.552Z,20.52
2022-09-30T06:46:09.393Z,17.77
2022-09-30T06:48:41.062Z,20.15
2022-09-30T06:51:11.020Z,19.90
2022-09-30T06:53:39.336Z,32.60
2022-09-30T06:56:06.797Z,25.33
2022-09-30T06:58:33.671Z,23.40
2022-09-30T07:01:02.357Z,20.75
2022-09-30T07:03:31.155Z,21.50
2022-09-30T07:06:01.909Z,21.45
2022-09-30T07:08:31.582Z,22.02
2022-09-30T07:11:02.489Z,24.13
2022-09-30T07:13:29.426Z,22.40
2022-09-30T07:15:57.373Z,22.30
2022-09-30T07:18:24.868Z,20.55
2022-09-30T07:20:52.511Z,22.08
2022-09-30T07:23:22.176Z,20.88
2022-09-30T07:25:53.940Z,21.60
2022-09-30T07:28:20.934Z,18.25
2022-09-30T07:30:47.882Z,20.20
2022-09-30T07:33:16.722Z,21.10
2022-09-30T07:35:51.206Z,25.67
2022-09-30T07:38:19.061Z,18.02
2022-09-30T07:40:53.534Z,20.27
2022-09-30T07:43:21.538Z,24.73
2022-09-30T07:45:48.986Z,26.58
2022-09-30T07:48:45.500Z,21.85
2022-09-30T07:51:17.077Z,21.80
2022-09-30T07:53:47.037Z,24.85
2022-09-30T07:56:14.900Z,26.08
2022-09-30T07:58:41.984Z,22.70
2022-09-30T08:01:09.159Z,19.67
2022-09-30T08:03:39.362Z,23.88
2022-09-30T08:06:08.082Z,19.48
2022-09-30T08:08:35.299Z,18.10
2022-09-30T08:11:02.553Z,21.33
2022-09-30T08:13:29.528Z,26.38
2022-09-30T08:15:56.414Z,31.60
2022-09-30T08:18:23.372Z,30.33
2022-09-30T08:20:50.311Z,36.33
2022-09-30T08:23:17.204Z,27.05
2022-09-30T08:25:44.106Z,41.08
2022-09-30T08:28:11.074Z,31.08
2022-09-30T08:30:39.093Z,21.40
2022-09-30T08:33:06.058Z,25.33
2022-09-30T08:35:34.897Z,26.70
2022-09-30T08:38:02.007Z,23.98
2022-09-30T08:40:30.481Z,27.30
2022-09-30T08:42:57.892Z,29.00
2022-09-30T08:45:33.940Z,31.42
2022-09-30T08:48:00.808Z,25.63
2022-09-30T08:50:46.532Z,27.45
2022-09-30T08:53:16.877Z,32.95
2022-09-30T08:55:45.596Z,32.40
2022-09-30T08:58:19.554Z,36.55
2022-09-30T09:00:47.100Z,28.35
2022-09-30T09:03:14.570Z,26.38
2022-09-30T09:06:00.345Z,28.45
2022-09-30T09:08:33.449Z,30.45
2022-09-30T09:11:09.117Z,29.42
2022-09-30T09:13:38.964Z,31.65
2022-09-30T09:16:18.705Z,29.97
2022-09-30T09:18:48.519Z,33.33
2022-09-30T09:21:18.420Z,35.40
2022-09-30T09:23:45.510Z,29.15
2022-09-30T09:26:14.689Z,31.55
2022-09-30T09:28:57.239Z,36.15
2022-09-30T09:31:25.339Z,29.75
2022-09-30T09:33:53.117Z,29.70
2022-09-30T09:36:19.976Z,34.15
2022-09-30T09:39:05.504Z,35.90
2022-09-30T09:41:38.464Z,119.22
2022-09-30T09:44:08.084Z,37.65
2022-09-30T09:46:46.382Z,28.27
2022-09-30T09:49:20.351Z,29.20
2022-09-30T09:51:50.312Z,33.38
2022-09-30T09:54:19.243Z,37.90
2022-09-30T09:56:46.288Z,32.22
2022-09-30T09:59:19.729Z,28.83
2022-09-30T10:01:56.182Z,25.48
2022-09-30T10:04:26.147Z,36.25
2022-09-30T10:07:00.229Z,33.15
2022-09-30T10:09:32.077Z,31.02
2022-09-30T10:12:07.994Z,32.70
2022-09-30T10:14:37.120Z,26.05
2022-09-30T10:17:05.859Z,30.40
2022-09-30T10:19:34.447Z,27.98
2022-09-30T10:22:10.157Z,36.35
2022-09-30T10:24:38.042Z,29.70
2022-09-30T10:27:05.062Z,32.40
2022-09-30T10:29:33.965Z,33.85
2022-09-30T10:32:09.242Z,25.63
2022-09-30T10:34:38.591Z,31.15
2022-09-30T10:37:19.996Z,37.17
2022-09-30T10:39:55.136Z,34.60
2022-09-30T10:42:27.340Z,34.78
2022-09-30T10:45:10.255Z,29.42
2022-09-30T10:47:44.395Z,31.77
2022-09-30T10:50:13.382Z,35.83
2022-09-30T10:53:00.467Z,32.10
2022-09-30T10:55:43.742Z,32.58
2022-09-30T10:58:22.842Z,35.58
2022-09-30T11:00:54.121Z,42.42
2022-09-30T11:03:22.553Z,37.85
2022-09-30T11:05:50.092Z,34.78
2022-09-30T11:08:23.042Z,30.10
2022-09-30T11:11:10.614Z,31.38
2022-09-30T11:13:48.413Z,30.67
2022-09-30T11:16:25.013Z,29.40
2022-09-30T11:19:07.531Z,23.63
2022-09-30T11:21:37.894Z,29.60
2022-09-30T11:24:14.280Z,25.75
2022-09-30T11:26:45.588Z,27.98
2022-09-30T11:29:18.629Z,29.77
2022-09-30T11:31:45.629Z,25.88
2022-09-30T11:34:21.908Z,25.63
2022-09-30T11:36:51.802Z,29.23
2022-09-30T11:39:28.960Z,31.70
2022-09-30T11:42:01.666Z,29.38
2022-09-30T11:44:36.182Z,28.38
2022-09-30T11:47:22.123Z,27.85
2022-09-30T11:49:51.961Z,26.67
2022-09-30T11:52:19.328Z,32.78
2022-09-30T11:55:06.567Z,29.10
2022-09-30T11:57:56.123Z,28.98
2022-09-30T12:00:23.516Z,26.35
2022-09-30T12:02:50.762Z,30.92
2022-09-30T12:05:24.422Z,29.17
2022-09-30T12:07:54.820Z,30.92
2022-09-30T12:10:34.431Z,21.77
2022-09-30T12:13:03.722Z,23.73
2022-09-30T12:15:31.760Z,22.77
2022-09-30T12:18:06.796Z,39.90
2022-09-30T12:21:03.831Z,30.52
2022-09-30T12:23:34.422Z,28.60
2022-09-30T12:26:02.606Z,26.92
2022-09-30T12:28:51.044Z,23.13
2022-09-30T12:31:24.153Z,30.13
2022-09-30T12:33:54.328Z,25.02
2022-09-30T12:36:21.278Z,32.30
2022-09-30T12:39:06.862Z,30.50
2022-09-30T12:41:43.613Z,35.40
2022-09-30T12:44:41.181Z,26.38
2022-09-30T12:47:08.019Z,25.00
2022-09-30T12:49:36.573Z,29.80
2022-09-30T12:52:05.632Z,26.63
2022-09-30T12:54:37.182Z,28.42
2022-09-30T12:57:09.362Z,31.95
2022-09-30T12:59:38.313Z,29.23
2022-09-30T13:02:07.042Z,30.25
2022-09-30T13:04:36.138Z,30.90
2022-09-30T13:07:03.201Z,29.98
2022-09-30T13:09:31.140Z,30.45
2022-09-30T13:11:57.994Z,30.55
2022-09-30T13:14:34.646Z,31.08
2022-09-30T13:17:10.825Z,30.63
2022-09-30T13:19:41.143Z,29.40
2022-09-30T13:22:34.627Z,26.20
2022-09-30T13:25:03.216Z,33.53
2022-09-30T13:27:34.250Z,32.15
2022-09-30T13:30:02.350Z,26.88
2022-09-30T13:32:33.498Z,29.95
2022-09-30T13:35:00.544Z,32.83
2022-09-30T13:37:31.410Z,37.05
2022-09-30T13:39:59.151Z,38.78
2022-09-30T13:42:30.193Z,32.28
2022-09-30T13:44:57.638Z,35.00
2022-09-30T13:47:29.864Z,34.20
2022-09-30T13:50:00.312Z,34.95
2022-09-30T13:52:32.998Z,32.05
2022-09-30T13:55:04.144Z,28.48
2022-09-30T13:57:40.308Z,28.15
2022-09-30T14:00:12.068Z,31.08
2022-09-30T14:02:47.186Z,27.02
2022-09-30T14:05:37.243Z,26.55
2022-09-30T14:08:08.322Z,32.53
2022-09-30T14:10:47.262Z,27.67
2022-09-30T14:13:19.046Z,35.63
2022-09-30T14:16:03.382Z,39.95
2022-09-30T14:18:36.706Z,29.52
2022-09-30T14:21:10.012Z,38.45
2022-09-30T14:23:37.150Z,29.50
2022-09-30T14:26:06.808Z,27.75
2022-09-30T14:28:47.920Z,29.05
2022-09-30T14:31:15.733Z,25.55
2022-09-30T14:33:45.535Z,26.88
2022-09-30T14:36:20.624Z,28.33
2022-09-30T14:38:51.383Z,31.65
2022-09-30T14:41:22.726Z,31.67
2022-09-30T14:43:53.415Z,29.05
2022-09-30T14:46:20.853Z,34.63
2022-09-30T14:48:50.842Z,29.08
2022-09-30T14:51:23.553Z,33.38
2022-09-30T14:53:56.092Z,37.45
2022-09-30T14:56:28.083Z,35.60
2022-09-30T14:58:57.871Z,34.92
2022-09-30T15:01:26.704Z,34.47
2022-09-30T15:03:56.918Z,36.97
2022-09-30T15:06:28.610Z,37.10
2022-09-30T15:09:04.975Z,35.67
2022-09-30T15:11:37.212Z,37.33
2022-09-30T15:14:09.886Z,32.03
2022-09-30T15:16:45.186Z,34.40
2022-09-30T15:19:16.425Z,32.40
2022-09-30T15:21:45.272Z,36.47
2022-09-30T15:24:13.082Z,37.97
2022-09-30T15:26:42.239Z,33.92
2022-09-30T15:29:15.637Z,33.97
2022-09-30T15:31:47.802Z,42.70
2022-09-30T15:34:20.454Z,40.65
2022-09-30T15:37:07.294Z,51.25
2022-09-30T15:39:59.195Z,57.38
2022-09-30T15:42:29.484Z,58.72
2022-09-30T15:44:58.696Z,59.38
2022-09-30T15:47:27.186Z,44.35
2022-09-30T15:49:55.903Z,47.40
2022-09-30T15:52:29.023Z,43.85
2022-09-30T15:54:57.257Z,40.97
2022-09-30T15:57:44.921Z,36.05
2022-09-30T16:00:33.662Z,36.97
2022-09-30T16:03:19.858Z,36.17
2022-09-30T16:05:53.787Z,40.25
2022-09-30T16:08:25.618Z,36.00
2022-09-30T16:10:54.386Z,32.95
2022-09-30T16:13:25.830Z,32.63
2022-09-30T16:15:54.785Z,33.75
2022-09-30T16:18:25.473Z,37.25
2022-09-30T16:21:00.743Z,30.35
2022-09-30T16:23:30.139Z,37.80
2022-09-30T16:26:30.678Z,31.95
2022-09-30T16:29:02.240Z,28.85
2022-09-30T16:31:31.045Z,32.45
2022-09-30T16:33:59.677Z,31.83
2022-09-30T16:36:27.874Z,28.58
2022-09-30T16:38:55.620Z,30.08
2022-09-30T16:41:23.647Z,27.50
2022-09-30T16:43:51.944Z,27.50
2022-09-30T16:46:19.106Z,34.33
2022-09-30T16:48:46.856Z,28.10
2022-09-30T16:51:16.627Z,28.98
2022-09-30T16:53:45.491Z,31.95
2022-09-30T16:56:17.031Z,28.13
2022-09-30T16:58:44.958Z,29.92
2022-09-30T17:01:30.288Z,29.83
2022-09-30T17:03:57.869Z,32.45
2022-09-30T17:06:29.639Z,27.58
2022-09-30T17:09:00.401Z,33.55
2022-09-30T17:11:33.323Z,39.33
2022-09-30T17:14:01.099Z,34.53
2022-09-30T17:16:28.952Z,37.70
2022-09-30T17:18:56.566Z,26.65
2022-09-30T17:21:25.504Z,33.53
2022-09-30T17:23:54.592Z,29.50
2022-09-30T17:26:21.932Z,30.20
2022-09-30T17:28:49.562Z,29.75
2022-09-30T17:31:24.508Z,31.48
2022-09-30T17:33:52.423Z,33.03
2022-09-30T17:36:22.318Z,30.83
2022-09-30T17:38:53.566Z,35.33
2022-09-30T17:41:40.597Z,32.65
2022-09-30T17:44:13.853Z,32.53
2022-09-30T17:46:42.989Z,32.88
2022-09-30T17:49:11.682Z,38.60
2022-09-30T17:51:39.077Z,31.58
2022-09-30T17:54:07.206Z,34.22
2022-09-30T17:56:35.222Z,38.92
2022-09-30T17:59:03.265Z,34.95
2022-09-30T18:01:31.556Z,32.95
2022-09-30T18:04:02.197Z,33.47
2022-09-30T18:06:30.029Z,35.40
2022-09-30T18:08:57.833Z,31.77
2022-09-30T18:11:26.651Z,33.65
2022-09-30T18:14:01.259Z,29.17
2022-09-30T18:16:34.178Z,37.20
2022-09-30T18:19:03.110Z,30.95
2022-09-30T18:21:31.206Z,35.10
2022-09-30T18:23:59.115Z,31.25
2022-09-30T18:26:33.072Z,36.63
2022-09-30T18:29:03.875Z,32.90
2022-09-30T18:31:43.534Z,40.33
2022-09-30T18:34:13.978Z,40.03
2022-09-30T18:39:12.404Z,36.65
2022-09-30T18:41:45.882Z,37.73
2022-09-30T18:44:13.744Z,39.20
2022-09-30T18:46:44.222Z,39.40
2022-09-30T18:49:11.660Z,42.28
2022-09-30T18:51:39.329Z,40.40
2022-09-30T18:54:08.366Z,39.90
2022-09-30T18:56:35.751Z,44.67
2022-09-30T18:59:05.235Z,39.05
2022-09-30T19:01:34.351Z,48.60
2022-09-30T19:04:07.601Z,46.55
2022-09-30T19:06:36.752Z,44.35
2022-09-30T19:09:07.110Z,41.75
2022-09-30T19:11:36.208Z,42.72
2022-09-30T19:14:04.402Z,43.63
2022-09-30T19:16:36.645Z,40.70
2022-09-30T19:19:06.609Z,39.28
2022-09-30T19:21:35.434Z,46.35
2022-09-30T19:24:06.127Z,43.42
2022-09-30T19:26:34.950Z,44.38
2022-09-30T19:29:03.431Z,41.80
2022-09-30T19:31:30.776Z,46.15
2022-09-30T19:33:59.358Z,46.92
2022-09-30T19:36:27.183Z,44.25
2022-09-30T19:39:11.523Z,43.45
2022-09-30T19:41:39.572Z,43.70
2022-09-30T19:44:06.655Z,43.30
2022-09-30T19:46:33.954Z,44.90
2022-09-30T19:49:00.959Z,48.80
2022-09-30T19:51:33.483Z,41.20
2022-09-30T19:54:06.728Z,40.92
2022-09-30T19:56:35.530Z,42.50
2022-09-30T19:59:03.302Z,42.00
2022-09-30T20:01:31.358Z,46.97
2022-09-30T20:04:00.352Z,42.05
2022-09-30T20:06:28.297Z,43.20
2022-09-30T20:09:00.443Z,44.50
2022-09-30T20:11:29.394Z,51.47
2022-09-30T20:14:15.071Z,42.17
2022-09-30T20:16:43.948Z,43.78
2022-09-30T20:19:12.180Z,47.00
2022-09-30T20:21:42.192Z,44.60
2022-09-30T20:24:11.210Z,42.55
2022-09-30T20:26:42.628Z,44.78
2022-09-30T20:29:10.896Z,53.72
2022-09-30T20:31:38.761Z,44.50
2022-09-30T20:34:05.779Z,49.97
2022-09-30T20:36:32.979Z,48.33
2022-09-30T20:39:00.990Z,43.50
2022-09-30T20:41:29.629Z,49.47
2022-09-30T20:43:57.507Z,49.95
2022-09-30T20:46:24.668Z,44.78
2022-09-30T20:48:51.711Z,44.72
2022-09-30T20:51:19.780Z,47.30
2022-09-30T20:53:50.821Z,47.70
2022-09-30T20:56:18.202Z,48.95
2022-09-30T20:58:45.217Z,46.55
2022-09-30T21:01:20.128Z,48.85
2022-09-30T21:03:50.562Z,47.55
2022-09-30T21:06:18.539Z,45.35
2022-09-30T21:08:45.426Z,49.42
2022-09-30T21:11:13.135Z,54.97
2022-09-30T21:13:43.836Z,55.97
2022-09-30T21:18:37.901Z,46.40
2022-09-30T21:21:05.059Z,49.58
2022-09-30T21:23:33.454Z,49.67
2022-09-30T21:26:01.701Z,45.58
2022-09-30T21:28:29.301Z,41.75
2022-09-30T21:30:56.446Z,45.25
2022-09-30T21:33:24.055Z,43.00
2022-09-30T21:35:59.021Z,42.92
2022-09-30T21:38:26.053Z,40.88
2022-09-30T21:40:58.090Z,41.85
2022-09-30T21:43:24.935Z,39.20
2022-09-30T21:45:58.846Z,42.47
2022-09-30T21:48:25.832Z,45.50
2022-09-30T21:50:53.374Z,43.60
2022-09-30T21:53:20.245Z,46.13
2022-09-30T21:55:48.023Z,37.25
2022-09-30T21:58:15.438Z,41.40
2022-09-30T22:00:44.013Z,41.67
2022-09-30T22:03:11.545Z,42.20
2022-09-30T22:05:38.393Z,42.85
2022-09-30T22:08:05.942Z,45.13
2022-09-30T22:10:33.071Z,41.90
2022-09-30T22:13:00.054Z,46.95
2022-09-30T22:15:27.286Z,45.80
2022-09-30T22:17:54.274Z,44.33
2022-09-30T22:20:21.235Z,42.78
2022-09-30T22:22:48.945Z,41.38
2022-09-30T22:25:15.948Z,46.40
2022-09-30T22:27:43.071Z,39.40
2022-09-30T22:30:10.044Z,42.45
2022-09-30T22:32:36.978Z,41.08
2022-09-30T22:35:23.120Z,42.30
2022-09-30T22:38:09.109Z,42.47
2022-09-30T22:40:36.388Z,43.28
2022-09-30T22:43:05.005Z,37.40
2022-09-30T22:45:32.010Z,41.95
2022-09-30T22:47:59.036Z,40.92
2022-09-30T22:50:28.965Z,52.22
2022-09-30T22:52:55.920Z,50.05
2022-09-30T22:55:22.740Z,51.83
2022-09-30T22:57:49.604Z,50.00
2022-09-30T23:00:16.782Z,47.42
2022-09-30T23:02:43.752Z,43.95
2022-09-30T23:05:10.943Z,44.47
2022-09-30T23:07:38.037Z,43.92
2022-09-30T23:10:05.126Z,36.78
2022-09-30T23:12:32.433Z,40.75
2022-09-30T23:14:59.271Z,42.40
2022-09-30T23:17:27.061Z,40.38
2022-09-30T23:19:53.838Z,38.58
2022-09-30T23:22:20.670Z,39.83
2022-09-30T23:24:47.478Z,45.03
2022-09-30T23:27:14.233Z,38.38
2022-09-30T23:29:41.065Z,41.50
2022-09-30T23:32:08.059Z,44.35
2022-09-30T23:34:35.042Z,46.22
2022-09-30T23:37:01.969Z,42.95
2022-09-30T23:39:30.669Z,50.67
2022-09-30T23:41:57.711Z,49.13
2022-09-30T23:44:25.225Z,51.45
2022-09-30T23:47:10.849Z,49.30
2022-09-30T23:49:38.530Z,40.58
2022-09-30T23:52:09.239Z,43.75
2022-09-30T23:54:39.693Z,49.47
2022-09-30T23:57:08.376Z,46.03
2022-09-30T23:59:35.390Z,47.55
